Time;durP1;ratioP1;P1;durP2;ratioP2;P2;SDS_P1;SDS_P2;PMS_P1;PMS_P2;Temp;Humidity;BMP_temperature;BMP_pressure;BME280_temperature;BME280_humidity;BME280_pressure;Samples;Min_cycle;Max_cycle;Signal;HPM_P1;HPM_P2
2022/03/24 00:01:29;;;;;;;39.85;23.60;;;7.30;99.90;;;;;;4905572;29;20113;-78
2022/03/24 00:03:55;;;;;;;45.45;23.00;;;7.30;99.90;;;;;;4912164;29;20100;-79
2022/03/24 00:06:20;;;;;;;40.35;23.35;;;7.50;99.90;;;;;;4902667;29;20040;-78
2022/03/24 00:08:46;;;;;;;43.90;23.75;;;7.20;99.90;;;;;;4902812;29;20059;-78
2022/03/24 00:11:12;;;;;;;50.70;24.90;;;7.20;99.90;;;;;;4907390;29;20041;-78
2022/03/24 00:13:37;;;;;;;49.78;24.70;;;7.20;99.90;;;;;;4883060;29;20053;-78
2022/03/24 00:16:04;;;;;;;50.63;25.52;;;7.10;99.90;;;;;;4901401;29;20443;-79
2022/03/24 00:18:32;;;;;;;43.30;23.88;;;7.10;99.90;;;;;;4912873;29;20051;-78
2022/03/24 00:21:01;;;;;;;45.38;24.60;;;7.00;99.90;;;;;;4918140;29;20051;-79
2022/03/24 00:23:27;;;;;;;45.63;24.63;;;7.20;99.90;;;;;;4912411;29;20056;-78
2022/03/24 00:25:54;;;;;;;;;;;7.20;99.90;;;;;;4899612;29;20537;-79
2022/03/24 00:28:20;;;;;;;47.20;24.85;;;6.90;99.90;;;;;;4882690;29;19930;-78
2022/03/24 00:30:46;;;;;;;46.42;23.58;;;6.80;99.90;;;;;;4896503;29;20056;-78
2022/03/24 00:33:12;;;;;;;46.40;24.70;;;6.80;99.90;;;;;;4914119;29;20064;-78
2022/03/24 00:35:38;;;;;;;42.05;23.92;;;6.70;99.90;;;;;;4878209;29;20083;-79
2022/03/24 00:38:05;;;;;;;;;;;6.70;99.90;;;;;;4896106;29;20049;-78
2022/03/24 00:40:32;;;;;;;;;;;6.40;99.90;;;;;;4865411;29;19931;-78
2022/03/24 00:42:59;;;;;;;44.25;21.60;;;6.40;99.90;;;;;;4892599;29;19927;-79
2022/03/24 00:45:25;;;;;;;47.38;22.52;;;6.30;99.90;;;;;;4873931;29;20088;-78
2022/03/24 00:47:51;;;;;;;42.17;22.35;;;6.40;99.90;;;;;;4908890;29;20044;-78
2022/03/24 00:50:17;;;;;;;41.70;22.25;;;6.50;99.90;;;;;;4878892;29;20530;-78
2022/03/24 00:52:44;;;;;;;47.50;23.58;;;6.30;99.90;;;;;;4880523;29;20108;-78
2022/03/24 00:55:12;;;;;;;40.33;22.35;;;6.20;99.90;;;;;;4879819;29;20052;-78
2022/03/24 00:57:43;;;;;;;46.53;23.20;;;6.20;99.90;;;;;;4877736;29;20057;-78
2022/03/24 01:00:15;;;;;;;43.40;23.77;;;6.40;99.90;;;;;;4914630;29;20056;-78
2022/03/24 01:02:45;;;;;;;44.65;22.20;;;6.20;99.90;;;;;;4911029;29;20454;-78
2022/03/24 01:05:15;;;;;;;40.60;21.77;;;6.20;99.90;;;;;;4898968;29;20059;-78
2022/03/24 01:07:45;;;;;;;43.35;23.65;;;6.10;99.90;;;;;;4910397;29;20450;-78
2022/03/24 01:10:13;;;;;;;46.22;23.38;;;6.00;99.90;;;;;;4913388;29;20050;-78
2022/03/24 01:12:42;;;;;;;46.03;24.40;;;6.00;99.90;;;;;;4909419;29;20107;-79
2022/03/24 01:15:10;;;;;;;45.05;22.80;;;6.00;99.90;;;;;;4906019;29;20087;-79
2022/03/24 01:17:36;;;;;;;46.85;24.83;;;5.90;99.90;;;;;;4890928;29;20088;-78
2022/03/24 01:20:04;;;;;;;45.65;23.67;;;5.80;99.90;;;;;;4880130;29;20104;-79
2022/03/24 01:22:30;;;;;;;44.63;24.30;;;5.90;99.90;;;;;;4877431;29;20051;-78
2022/03/24 01:24:56;;;;;;;44.00;24.73;;;5.80;99.90;;;;;;4914566;29;20059;-78
2022/03/24 01:27:27;;;;;;;41.58;22.98;;;5.90;99.90;;;;;;4906836;29;20119;-78
2022/03/24 01:29:57;;;;;;;47.30;22.55;;;5.80;99.90;;;;;;4898353;29;20119;-78
2022/03/24 01:32:24;;;;;;;51.03;25.27;;;5.70;99.90;;;;;;4888379;29;20052;-79
2022/03/24 01:34:50;;;;;;;44.45;23.10;;;5.80;99.90;;;;;;4906104;29;20139;-79
2022/03/24 01:37:17;;;;;;;42.67;23.02;;;5.90;99.90;;;;;;4906716;29;20136;-79
2022/03/24 01:39:42;;;;;;;42.95;22.05;;;5.70;99.90;;;;;;4898112;29;20099;-78
2022/03/24 01:42:08;;;;;;;44.85;23.23;;;5.80;99.90;;;;;;4879475;29;20052;-78
2022/03/24 01:44:34;;;;;;;52.22;25.23;;;5.70;99.90;;;;;;4890514;29;20053;-78
2022/03/24 01:47:10;;;;;;;49.78;24.95;;;5.70;99.90;;;;;;4895519;29;20128;-81
2022/03/24 01:49:41;;;;;;;49.43;25.60;;;5.70;99.90;;;;;;4909593;29;20135;-81
2022/03/24 01:52:13;;;;;;;47.65;24.45;;;5.70;99.90;;;;;;4913104;29;20136;-81
2022/03/24 01:54:42;;;;;;;47.33;24.63;;;5.60;99.90;;;;;;4909993;29;20429;-81
2022/03/24 01:57:11;;;;;;;43.92;24.60;;;5.60;99.90;;;;;;4890326;29;20075;-81
2022/03/24 01:59:37;;;;;;;47.92;24.23;;;5.50;99.90;;;;;;4905500;29;20111;-80
2022/03/24 02:02:07;;;;;;;;;;;5.50;99.90;;;;;;4897650;29;20095;-81
2022/03/24 02:04:35;;;;;;;50.92;25.23;;;5.50;99.90;;;;;;4908848;29;20328;-81
2022/03/24 02:07:02;;;;;;;47.42;24.92;;;5.40;99.90;;;;;;4876955;29;20049;-80
2022/03/24 02:09:27;;;;;;;54.78;25.42;;;5.40;99.90;;;;;;4851822;29;20045;-81
2022/03/24 02:11:54;;;;;;;52.38;26.13;;;5.40;99.90;;;;;;4905898;29;20048;-81
2022/03/24 02:14:19;;;;;;;52.50;26.80;;;5.10;99.90;;;;;;4895980;29;20410;-81
2022/03/24 02:16:48;;;;;;;52.90;26.70;;;5.40;99.90;;;;;;4912344;29;20055;-80
2022/03/24 02:19:21;;;;;;;58.90;27.58;;;5.60;99.90;;;;;;4905019;29;20052;-80
2022/03/24 02:21:49;;;;;;;56.88;27.48;;;5.30;99.90;;;;;;4897907;29;20051;-81
2022/03/24 02:24:16;;;;;;;55.95;26.58;;;4.90;99.90;;;;;;4897740;29;20056;-80
2022/03/24 02:26:44;;;;;;;50.03;25.08;;;5.70;99.90;;;;;;4908162;29;20128;-81
2022/03/24 02:29:14;;;;;;;55.00;26.92;;;5.10;99.90;;;;;;4878384;29;20052;-81
2022/03/24 02:31:45;;;;;;;50.08;25.50;;;5.90;99.90;;;;;;4874990;29;20048;-81
2022/03/24 02:37:06;;;;;;;54.38;25.55;;;4.80;99.90;;;;;;4892631;29;20052;-81
2022/03/24 02:39:32;;;;;;;50.13;25.38;;;4.80;99.90;;;;;;4888334;29;20059;-81
2022/03/24 02:41:59;;;;;;;50.83;25.90;;;4.90;99.90;;;;;;4900056;29;20056;-81
2022/03/24 02:44:28;;;;;;;50.17;25.27;;;4.60;99.90;;;;;;4905799;29;20040;-81
2022/03/24 02:46:55;;;;;;;52.65;27.42;;;4.70;99.90;;;;;;4913720;29;20131;-81
2022/03/24 02:49:24;;;;;;;52.97;26.60;;;5.50;99.90;;;;;;4905122;29;20052;-80
2022/03/24 02:51:50;;;;;;;53.13;28.08;;;4.90;99.90;;;;;;4912920;29;20076;-81
2022/03/24 02:54:17;;;;;;;51.97;27.00;;;5.60;99.90;;;;;;4889206;29;20080;-80
2022/03/24 02:56:42;;;;;;;;;;;5.40;99.90;;;;;;4897093;29;20143;-81
2022/03/24 02:59:10;;;;;;;52.22;26.85;;;4.80;99.90;;;;;;4896833;29;20021;-81
2022/03/24 03:01:38;;;;;;;58.15;27.27;;;4.80;99.90;;;;;;4900034;29;20060;-81
2022/03/24 03:04:05;;;;;;;54.55;27.50;;;4.70;99.90;;;;;;4878790;29;20159;-81
2022/03/24 03:06:33;;;;;;;54.67;26.67;;;4.70;99.90;;;;;;4887979;29;20566;-81
2022/03/24 03:09:01;;;;;;;53.67;27.30;;;5.50;99.90;;;;;;4878694;29;20561;-80
2022/03/24 03:11:26;;;;;;;49.30;25.60;;;5.10;99.90;;;;;;4899022;29;21934;-80
2022/03/24 03:13:52;;;;;;;54.03;27.13;;;4.80;99.90;;;;;;4896350;29;20087;-80
2022/03/24 03:16:18;;;;;;;53.22;28.08;;;4.60;99.90;;;;;;4889574;29;20526;-81
2022/03/24 03:18:44;;;;;;;;;;;4.60;99.90;;;;;;4894243;29;20062;-81
2022/03/24 03:21:11;;;;;;;60.92;28.60;;;5.00;99.90;;;;;;4893925;29;20010;-81
2022/03/24 03:23:38;;;;;;;56.88;28.10;;;5.10;99.90;;;;;;4888888;29;20060;-80
2022/03/24 03:26:08;;;;;;;57.92;28.95;;;4.50;99.90;;;;;;4894017;29;20056;-80
2022/03/24 03:28:34;;;;;;;59.67;28.48;;;4.70;99.90;;;;;;4897387;29;20132;-81
2022/03/24 03:31:01;;;;;;;59.65;28.33;;;4.20;99.90;;;;;;4869872;29;20061;-81
2022/03/24 03:33:27;;;;;;;61.08;28.23;;;4.20;99.90;;;;;;4900130;29;20505;-80
2022/03/24 03:35:53;;;;;;;;;;;4.30;99.90;;;;;;4897370;29;20554;-81
2022/03/24 03:38:19;;;;;;;63.78;28.45;;;4.50;99.90;;;;;;4905003;29;19926;-80
2022/03/24 03:40:46;;;;;;;57.58;28.88;;;4.00;99.90;;;;;;4890096;29;20053;-81
2022/03/24 03:43:12;;;;;;;59.42;28.20;;;3.90;99.90;;;;;;4876869;29;20487;-82
2022/03/24 03:45:38;;;;;;;61.63;29.27;;;3.90;99.90;;;;;;4886761;29;20573;-80
2022/03/24 03:48:05;;;;;;;66.10;29.08;;;4.10;99.90;;;;;;4897030;29;20048;-81
2022/03/24 03:50:31;;;;;;;58.08;27.83;;;4.80;99.90;;;;;;4890401;29;20601;-80
2022/03/24 03:52:57;;;;;;;;;;;4.50;99.90;;;;;;4891969;29;20055;-81
2022/03/24 03:55:22;;;;;;;56.85;28.08;;;3.80;99.90;;;;;;4880221;29;19923;-81
2022/03/24 03:57:48;;;;;;;61.25;28.45;;;4.50;99.90;;;;;;4889441;29;20057;-81
2022/03/24 04:03:03;;;;;;;59.70;28.98;;;3.90;99.90;;;;;;4909392;29;20095;-81
2022/03/24 04:05:30;;;;;;;56.55;29.08;;;5.10;99.90;;;;;;4910427;29;20571;-81
2022/03/24 04:07:56;;;;;;;63.70;29.25;;;3.80;99.90;;;;;;4915607;29;20064;-80
2022/03/24 04:10:22;;;;;;;59.60;29.50;;;4.50;99.90;;;;;;4908903;29;20056;-81
2022/03/24 04:12:48;;;;;;;68.72;31.33;;;3.70;99.90;;;;;;4914660;29;20474;-81
2022/03/24 04:15:13;;;;;;;;;;;4.60;99.90;;;;;;4905828;29;20052;-81
2022/03/24 04:17:39;;;;;;;62.22;29.52;;;3.60;99.90;;;;;;4898047;29;19978;-81
2022/03/24 04:20:07;;;;;;;61.67;29.70;;;3.80;99.90;;;;;;4915442;29;20056;-80
2022/03/24 04:22:32;;;;;;;63.10;30.45;;;3.70;99.90;;;;;;4901383;29;20104;-81
2022/03/24 04:24:58;;;;;;;66.22;31.50;;;4.30;99.90;;;;;;4915040;29;20051;-81
2022/03/24 04:27:24;;;;;;;60.53;29.35;;;3.70;99.90;;;;;;4897057;29;20055;-81
2022/03/24 04:29:49;;;;;;;63.60;29.55;;;4.00;99.90;;;;;;4881317;29;20055;-81
2022/03/24 04:32:16;;;;;;;55.88;27.52;;;4.60;99.90;;;;;;4887033;29;20585;-81
2022/03/24 04:34:42;;;;;;;59.45;28.42;;;3.80;99.90;;;;;;4896581;29;20143;-81
2022/03/24 04:37:08;;;;;;;56.80;27.58;;;3.40;99.90;;;;;;4865286;29;20139;-81
2022/03/24 04:39:33;;;;;;;56.35;28.90;;;4.20;99.90;;;;;;4875889;29;20044;-81
2022/03/24 04:41:59;;;;;;;60.22;30.27;;;3.60;99.90;;;;;;4903737;29;20201;-82
2022/03/24 04:44:25;;;;;;;61.88;30.75;;;3.30;99.90;;;;;;4909193;29;20160;-81
2022/03/24 04:46:51;;;;;;;58.67;29.58;;;4.50;99.90;;;;;;4915412;29;20147;-81
2022/03/24 04:49:17;;;;;;;61.00;30.27;;;4.30;99.90;;;;;;4891900;29;20139;-82
2022/03/24 04:51:43;;;;;;;62.92;30.58;;;3.50;99.90;;;;;;4895529;29;20565;-81
2022/03/24 04:54:09;;;;;;;64.88;29.27;;;3.20;99.90;;;;;;4880679;29;20155;-81
2022/03/24 04:56:34;;;;;;;65.07;30.42;;;3.40;99.90;;;;;;4901952;29;20139;-81
2022/03/24 04:59:00;;;;;;;62.95;29.02;;;3.40;99.90;;;;;;4908426;29;20426;-81
2022/03/24 05:01:26;;;;;;;63.33;30.67;;;3.30;99.90;;;;;;4890234;29;20197;-81
2022/03/24 05:03:52;;;;;;;65.53;30.80;;;3.30;99.90;;;;;;4895845;29;20561;-81
2022/03/24 05:06:18;;;;;;;60.70;30.02;;;4.40;99.90;;;;;;4873917;29;20040;-82
2022/03/24 05:08:44;;;;;;;58.97;30.15;;;3.10;99.90;;;;;;4895284;29;20407;-80
2022/03/24 05:11:09;;;;;;;62.08;30.27;;;3.40;99.90;;;;;;4896133;29;20072;-81
2022/03/24 05:13:35;;;;;;;59.47;29.75;;;3.80;99.90;;;;;;4892584;29;20517;-81
2022/03/24 05:16:01;;;;;;;63.45;29.70;;;3.10;99.90;;;;;;4906121;29;20060;-81
2022/03/24 05:18:26;;;;;;;53.40;28.52;;;2.90;99.90;;;;;;4885989;29;20079;-81
2022/03/24 05:20:53;;;;;;;53.05;27.50;;;2.90;99.90;;;;;;4883101;29;20486;-81
2022/03/24 05:23:19;;;;;;;63.15;29.42;;;3.10;99.90;;;;;;4907788;29;20056;-81
2022/03/24 05:25:47;;;;;;;66.13;29.20;;;2.80;99.90;;;;;;4898248;29;20084;-81
2022/03/24 05:28:14;;;;;;;62.58;29.63;;;3.40;99.90;;;;;;4868119;29;20048;-81
2022/03/24 05:30:40;;;;;;;63.13;29.95;;;2.80;99.90;;;;;;4914126;29;20059;-82
2022/03/24 05:33:06;;;;;;;63.63;31.00;;;2.80;99.90;;;;;;4900746;29;20064;-81
2022/03/24 05:35:35;;;;;;;64.72;30.15;;;4.30;99.90;;;;;;4894141;29;20092;-81
2022/03/24 05:38:03;;;;;;;56.72;28.58;;;2.70;99.90;;;;;;4904986;29;20052;-81
2022/03/24 05:40:29;;;;;;;61.92;29.55;;;3.30;99.90;;;;;;4889316;29;20056;-81
2022/03/24 05:42:54;;;;;;;68.00;31.00;;;3.30;99.90;;;;;;4884093;29;20080;-81
2022/03/24 05:45:20;;;;;;;66.10;32.20;;;2.80;99.90;;;;;;4907474;29;20048;-80
2022/03/24 05:47:46;;;;;;;68.38;32.30;;;3.00;99.90;;;;;;4897675;29;20052;-81
2022/03/24 05:50:13;;;;;;;63.70;31.27;;;2.70;99.90;;;;;;4913903;29;20107;-81
2022/03/24 05:52:40;;;;;;;64.82;32.85;;;3.60;99.90;;;;;;4897969;29;20418;-81
2022/03/24 05:55:06;;;;;;;;;;;3.80;99.90;;;;;;4914104;29;20056;-81
2022/03/24 05:57:32;;;;;;;64.07;31.17;;;3.10;99.90;;;;;;4888079;29;19927;-81
2022/03/24 05:59:58;;;;;;;64.65;31.50;;;2.80;99.90;;;;;;4895937;29;20486;-80
2022/03/24 06:02:25;;;;;;;62.85;30.73;;;4.00;99.90;;;;;;4857764;29;20115;-81
2022/03/24 06:04:53;;;;;;;65.18;31.17;;;3.50;99.90;;;;;;4897010;29;20455;-80
2022/03/24 06:07:19;;;;;;;65.10;31.65;;;3.50;99.90;;;;;;4904078;29;20060;-80
2022/03/24 06:09:45;;;;;;;68.75;32.53;;;3.20;99.90;;;;;;4894425;29;20486;-80
2022/03/24 06:12:13;;;;;;;;;;;3.00;99.90;;;;;;4894589;29;20049;-79
2022/03/24 06:14:42;;;;;;;68.72;32.47;;;3.10;99.90;;;;;;4906507;29;19934;-80
2022/03/24 06:17:09;;;;;;;62.60;32.35;;;3.60;99.90;;;;;;4894985;29;20477;-80
2022/03/24 06:19:36;;;;;;;68.28;32.72;;;4.50;99.90;;;;;;4895803;29;20070;-80
2022/03/24 06:22:03;;;;;;;69.28;33.58;;;3.50;99.90;;;;;;4902400;29;20533;-80
2022/03/24 06:24:30;;;;;;;65.88;32.58;;;3.50;99.90;;;;;;4891522;29;20102;-81
2022/03/24 06:26:56;;;;;;;67.97;33.67;;;3.90;99.90;;;;;;4912421;29;20056;-81
2022/03/24 06:29:22;;;;;;;69.10;33.38;;;3.60;99.90;;;;;;4891876;29;20052;-80
2022/03/24 06:31:48;;;;;;;73.00;33.58;;;4.10;99.90;;;;;;4897780;29;20076;-80
2022/03/24 06:34:14;;;;;;;70.80;34.20;;;3.40;99.90;;;;;;4905549;29;20059;-80
2022/03/24 06:36:40;;;;;;;67.53;34.20;;;3.40;99.90;;;;;;4913332;29;20048;-80
2022/03/24 06:39:06;;;;;;;67.70;32.13;;;3.60;99.90;;;;;;4898048;29;20547;-79
2022/03/24 06:41:31;;;;;;;;;;;3.90;99.90;;;;;;4887673;29;20076;-80
2022/03/24 06:43:59;;;;;;;67.72;31.83;;;4.60;99.90;;;;;;4878423;29;20280;-79
2022/03/24 06:46:27;;;;;;;68.93;31.85;;;3.80;99.90;;;;;;4885417;29;20127;-79
2022/03/24 06:48:53;;;;;;;69.20;33.05;;;3.90;99.90;;;;;;4912797;29;20576;-80
2022/03/24 06:51:19;;;;;;;67.32;32.40;;;4.00;99.90;;;;;;4891091;29;20135;-79
2022/03/24 06:53:45;;;;;;;65.15;30.52;;;4.30;99.90;;;;;;4896719;29;20505;-80
2022/03/24 06:56:11;;;;;;;66.50;31.60;;;4.30;99.90;;;;;;4881663;29;20063;-79
2022/03/24 06:58:36;;;;;;;67.90;31.88;;;4.50;99.90;;;;;;4907450;29;20056;-79
2022/03/24 07:01:04;;;;;;;61.65;32.28;;;4.20;99.90;;;;;;4913593;29;20095;-79
2022/03/24 07:03:30;;;;;;;66.40;32.42;;;4.60;99.90;;;;;;4907567;29;20052;-79
2022/03/24 07:05:56;;;;;;;65.22;32.00;;;4.20;99.90;;;;;;4897438;29;20052;-79
2022/03/24 07:08:25;;;;;;;66.60;31.88;;;3.90;99.90;;;;;;4897817;29;20063;-79
2022/03/24 07:10:51;;;;;;;62.95;31.33;;;4.40;99.90;;;;;;4863013;29;20056;-78
2022/03/24 07:13:17;;;;;;;64.65;32.08;;;4.50;99.90;;;;;;4886296;29;20099;-79
2022/03/24 07:15:43;;;;;;;58.70;31.08;;;4.50;99.90;;;;;;4894166;29;20134;-79
2022/03/24 07:18:10;;;;;;;64.63;31.98;;;4.60;99.90;;;;;;4894265;29;20052;-79
2022/03/24 07:20:38;;;;;;;62.38;32.90;;;4.40;99.90;;;;;;4907461;29;20071;-79
2022/03/24 07:23:06;;;;;;;66.38;33.15;;;4.60;99.90;;;;;;4897484;29;20052;-78
2022/03/24 07:25:32;;;;;;;65.03;31.98;;;5.40;99.90;;;;;;4892452;29;20056;-78
2022/03/24 07:27:59;;;;;;;67.97;34.50;;;4.80;99.90;;;;;;4912236;29;20074;-78
2022/03/24 07:30:25;;;;;;;70.38;34.72;;;5.60;99.90;;;;;;4907186;29;20051;-79
2022/03/24 07:32:53;;;;;;;74.50;34.97;;;5.10;99.90;;;;;;4911638;29;20577;-78
2022/03/24 07:35:20;;;;;;;68.90;35.42;;;5.30;99.90;;;;;;4906490;29;20064;-78
2022/03/24 07:37:47;;;;;;;70.60;34.53;;;5.10;99.90;;;;;;4912871;29;20078;-80
2022/03/24 07:40:18;;;;;;;77.63;34.20;;;5.50;99.90;;;;;;4912611;29;20083;-82
2022/03/24 07:42:45;;;;;;;66.25;33.38;;;5.60;99.90;;;;;;4899424;29;20059;-77
2022/03/24 07:45:12;;;;;;;67.57;34.65;;;5.70;99.90;;;;;;4914982;29;20134;-78
2022/03/24 07:48:03;;;;;;;74.18;35.03;;;5.80;99.90;;;;;;4888436;29;20048;-81
2022/03/24 07:50:29;;;;;;;68.05;35.15;;;5.90;99.90;;;;;;4913193;29;20184;-78
2022/03/24 07:53:03;;;;;;;69.03;34.10;;;6.00;99.90;;;;;;4907764;29;20119;-79
2022/03/24 07:55:30;;;;;;;67.22;31.05;;;6.10;99.90;;;;;;4904065;29;20044;-79
2022/03/24 07:57:55;;;;;;;60.88;32.42;;;6.20;99.90;;;;;;4897059;29;20052;-79
2022/03/24 08:00:22;;;;;;;57.17;32.10;;;5.90;99.90;;;;;;4904407;29;20052;-79
2022/03/24 08:02:52;;;;;;;;;;;6.30;99.90;;;;;;4895367;29;20091;-78
2022/03/24 08:05:18;;;;;;;64.25;31.73;;;7.00;99.90;;;;;;4888351;29;19928;-77
2022/03/24 08:07:44;;;;;;;73.35;32.15;;;6.50;99.90;;;;;;4904776;29;20494;-75
2022/03/24 08:10:09;;;;;;;65.05;33.38;;;6.60;99.90;;;;;;4916441;29;20052;-80
2022/03/24 08:12:35;;;;;;;63.30;33.03;;;6.70;99.90;;;;;;4901752;29;20107;-81
2022/03/24 08:15:01;;;;;;;70.18;32.83;;;7.10;99.90;;;;;;4899388;29;20053;-80
2022/03/24 08:17:27;;;;;;;62.25;32.67;;;6.90;99.90;;;;;;4890945;29;20128;-77
2022/03/24 08:19:53;;;;;;;66.97;34.22;;;6.90;99.90;;;;;;4896780;29;20566;-77
2022/03/24 08:22:19;;;;;;;68.70;35.67;;;7.00;99.90;;;;;;4859444;29;20052;-78
2022/03/24 08:24:45;;;;;;;71.30;33.45;;;7.10;99.90;;;;;;4880846;29;20060;-77
2022/03/24 08:27:11;;;;;;;66.65;33.28;;;6.70;99.90;;;;;;4896332;29;20048;-77
2022/03/24 08:29:36;;;;;;;67.25;33.33;;;7.30;99.90;;;;;;4877270;29;20469;-79
2022/03/24 08:32:03;;;;;;;62.63;31.27;;;7.50;99.90;;;;;;4900500;29;20104;-78
2022/03/24 08:34:29;;;;;;;63.50;33.03;;;7.40;99.90;;;;;;4890803;29;20068;-76
2022/03/24 08:36:54;;;;;;;64.15;33.78;;;7.70;99.90;;;;;;4881889;29;20047;-77
2022/03/24 08:39:20;;;;;;;70.18;33.35;;;7.20;99.90;;;;;;4885990;29;20075;-77
2022/03/24 08:41:46;;;;;;;59.50;32.53;;;7.60;99.90;;;;;;4879727;29;20052;-77
2022/03/24 08:44:11;;;;;;;63.58;32.90;;;7.60;99.90;;;;;;4880833;29;20395;-77
2022/03/24 08:46:37;;;;;;;64.00;31.80;;;8.00;99.90;;;;;;4876484;29;20063;-77
2022/03/24 08:49:03;;;;;;;61.60;31.27;;;7.90;99.90;;;;;;4895504;29;20044;-82
2022/03/24 08:51:29;;;;;;;63.55;31.88;;;8.00;99.90;;;;;;4881161;29;20594;-76
2022/03/24 08:53:54;;;;;;;63.75;31.83;;;8.10;99.90;;;;;;4911419;29;20067;-76
2022/03/24 08:56:20;;;;;;;59.58;31.38;;;8.10;99.90;;;;;;4889757;29;20064;-76
2022/03/24 08:58:46;;;;;;;63.63;31.20;;;8.40;99.90;;;;;;4879753;29;20135;-76
2022/03/24 09:01:12;;;;;;;61.60;32.25;;;8.40;99.90;;;;;;4896952;29;20059;-76
2022/03/24 09:03:38;;;;;;;60.08;31.17;;;8.50;99.90;;;;;;4880613;29;20495;-77
2022/03/24 09:06:04;;;;;;;61.60;31.40;;;8.60;99.90;;;;;;4880298;29;20053;-74
2022/03/24 09:08:30;;;;;;;62.33;31.67;;;8.60;99.90;;;;;;4892104;29;20044;-78
2022/03/24 09:10:55;;;;;;;61.70;30.90;;;8.70;99.90;;;;;;4902110;29;20064;-77
2022/03/24 09:13:21;;;;;;;63.15;30.35;;;8.80;99.90;;;;;;4876764;29;20458;-76
2022/03/24 09:15:47;;;;;;;63.35;31.98;;;8.90;99.90;;;;;;4898101;29;20380;-78
2022/03/24 09:18:13;;;;;;;58.65;30.88;;;8.90;99.90;;;;;;4900457;29;20655;-78
2022/03/24 09:20:39;;;;;;;57.20;31.20;;;9.00;99.90;;;;;;4884308;29;20128;-82
2022/03/24 09:23:08;;;;;;;62.38;30.35;;;9.10;99.90;;;;;;4898480;29;20487;-81
2022/03/24 09:25:34;;;;;;;48.88;27.23;;;9.20;99.90;;;;;;4891512;29;20044;-82
2022/03/24 09:28:00;;;;;;;55.10;28.88;;;9.30;99.90;;;;;;4903898;29;20092;-81
2022/03/24 09:30:25;;;;;;;57.60;30.05;;;9.40;99.90;;;;;;4890484;29;20048;-82
2022/03/24 09:32:52;;;;;;;58.65;31.00;;;9.50;99.90;;;;;;4894896;29;20057;-83
2022/03/24 09:35:18;;;;;;;52.92;26.70;;;9.70;99.90;;;;;;4900991;29;20143;-82
2022/03/24 09:37:44;;;;;;;55.00;26.42;;;9.90;99.90;;;;;;4895264;29;20052;-84
2022/03/24 09:40:11;;;;;;;50.28;25.50;;;10.10;99.90;;;;;;4888959;29;20055;-82
2022/03/24 09:42:38;;;;;;;49.45;25.88;;;10.30;99.90;;;;;;4901902;29;20056;-81
2022/03/24 09:45:05;;;;;;;53.63;26.55;;;10.30;99.90;;;;;;4912269;29;20128;-81
2022/03/24 09:47:32;;;;;;;43.65;22.73;;;10.40;99.90;;;;;;4885397;29;20060;-81
2022/03/24 09:49:58;;;;;;;42.58;20.20;;;10.50;99.90;;;;;;4888142;29;20059;-81
2022/03/24 09:52:25;;;;;;;43.70;19.58;;;10.60;99.90;;;;;;4896617;29;20091;-78
2022/03/24 09:54:52;;;;;;;41.03;20.08;;;10.80;99.90;;;;;;4896447;29;20126;-78
2022/03/24 09:57:17;;;;;;;39.60;19.80;;;10.90;99.90;;;;;;4898032;29;20103;-79
2022/03/24 09:59:44;;;;;;;40.45;19.90;;;11.10;99.90;;;;;;4884606;29;20075;-77
2022/03/24 10:02:10;;;;;;;37.67;20.17;;;11.30;99.90;;;;;;4880332;29;20513;-79
2022/03/24 10:04:45;;;;;;;41.15;19.52;;;11.50;99.90;;;;;;4890801;29;20048;-78
2022/03/24 10:07:11;;;;;;;43.37;20.33;;;11.70;99.90;;;;;;4895271;29;20060;-78
2022/03/24 10:09:42;;;;;;;36.97;19.70;;;11.80;99.90;;;;;;4875245;29;20777;-78
2022/03/24 10:12:17;;;;;;;66.82;25.92;;;12.00;99.90;;;;;;4862185;29;20049;-79
2022/03/24 10:14:43;;;;;;;60.45;25.10;;;12.10;99.90;;;;;;4876111;29;20079;-78
2022/03/24 10:17:11;;;;;;;132.07;41.53;;;12.10;99.90;;;;;;4894476;29;20148;-79
2022/03/24 10:19:37;;;;;;;128.65;38.75;;;12.10;99.90;;;;;;4890720;29;20053;-76
2022/03/24 10:22:10;;;;;;;144.80;37.22;;;12.00;99.90;;;;;;4894543;29;20510;-78
2022/03/24 10:24:44;;;;;;;167.80;58.83;;;11.90;99.90;;;;;;4901142;29;20062;-78
2022/03/24 10:27:13;;;;;;;54.03;25.33;;;11.90;99.90;;;;;;4913515;29;20819;-84
2022/03/24 10:29:39;;;;;;;145.77;42.83;;;12.00;99.90;;;;;;4910391;29;20524;-84
2022/03/24 10:32:11;;;;;;;248.40;56.92;;;12.00;99.90;;;;;;4881844;29;20048;-80
2022/03/24 10:34:39;;;;;;;76.47;33.40;;;11.60;99.90;;;;;;4892980;29;20914;-82
2022/03/24 10:37:07;;;;;;;52.67;29.00;;;11.20;99.90;;;;;;4913280;29;20438;-82
2022/03/24 10:39:37;;;;;;;84.80;34.08;;;10.90;99.90;;;;;;4912993;29;20048;-81
2022/03/24 10:42:18;;;;;;;58.45;28.17;;;10.80;99.90;;;;;;4896215;29;20602;-82
2022/03/24 10:45:07;;;;;;;114.88;41.97;;;10.80;99.90;;;;;;4898561;29;20052;-78
2022/03/24 10:47:42;;;;;;;56.75;28.17;;;10.70;99.90;;;;;;4879034;29;20060;-79
2022/03/24 10:50:28;;;;;;;44.75;23.85;;;10.50;99.90;;;;;;4893991;29;20135;-80
2022/03/24 10:53:06;;;;;;;47.22;27.30;;;10.40;99.90;;;;;;4893910;29;20053;-80
2022/03/24 10:55:40;;;;;;;44.20;24.42;;;10.40;99.90;;;;;;4894531;29;20056;-80
2022/03/24 10:58:39;;;;;;;42.17;23.52;;;10.40;99.90;;;;;;4885294;29;20151;-81
2022/03/24 11:01:08;;;;;;;43.35;25.10;;;10.40;99.90;;;;;;4894043;29;20127;-79
2022/03/24 11:03:34;;;;;;;40.28;23.73;;;10.50;99.90;;;;;;4894197;29;20056;-79
2022/03/24 11:06:08;;;;;;;43.97;25.33;;;10.60;99.90;;;;;;4877966;29;20055;-80
2022/03/24 11:08:34;;;;;;;53.55;27.05;;;10.70;99.90;;;;;;4894385;29;20566;-80
2022/03/24 11:11:04;;;;;;;60.70;27.60;;;10.90;99.90;;;;;;4879359;29;20057;-80
2022/03/24 11:13:43;;;;;;;55.78;26.30;;;11.10;99.90;;;;;;4897121;29;20048;-80
2022/03/24 11:16:11;;;;;;;45.40;23.60;;;11.40;99.90;;;;;;4912868;29;20111;-81
2022/03/24 11:18:38;;;;;;;42.88;25.35;;;11.60;99.90;;;;;;4912791;29;20064;-80
2022/03/24 11:21:24;;;;;;;44.83;22.15;;;11.90;99.90;;;;;;4912894;29;20104;-80
2022/03/24 11:23:53;;;;;;;57.30;26.30;;;12.10;99.90;;;;;;4912878;29;20112;-82
2022/03/24 11:26:21;;;;;;;54.53;26.27;;;12.40;99.90;;;;;;4912142;29;20564;-81
2022/03/24 11:28:47;;;;;;;42.58;22.02;;;12.70;99.90;;;;;;4908073;29;20127;-82
2022/03/24 11:31:14;;;;;;;;;;;12.90;99.90;;;;;;4894413;29;20052;-82
2022/03/24 11:33:45;;;;;;;35.13;17.80;;;13.10;99.90;;;;;;4877581;29;19939;-81
2022/03/24 11:36:12;;;;;;;36.20;20.05;;;13.30;99.90;;;;;;4893727;29;20087;-81
2022/03/24 11:38:39;;;;;;;38.10;18.33;;;13.50;99.90;;;;;;4897201;29;20458;-82
2022/03/24 11:41:12;;;;;;;84.20;28.05;;;13.60;99.90;;;;;;4896744;29;20056;-81
2022/03/24 11:43:43;;;;;;;32.33;18.48;;;13.70;99.90;;;;;;4896399;29;20059;-81
2022/03/24 11:46:19;;;;;;;30.50;18.05;;;13.90;99.90;;;;;;4912591;29;20044;-80
2022/03/24 11:48:45;;;;;;;33.50;16.85;;;14.00;99.90;;;;;;4913110;29;20070;-84
2022/03/24 11:51:23;;;;;;;30.83;17.63;;;14.10;99.90;;;;;;4914590;29;20048;-83
2022/03/24 11:54:09;;;;;;;28.70;15.38;;;14.40;99.90;;;;;;4884123;29;20379;-81
2022/03/24 11:56:36;;;;;;;29.27;17.87;;;14.70;99.90;;;;;;4910027;29;20060;-82
2022/03/24 11:59:03;;;;;;;27.08;16.25;;;15.00;99.90;;;;;;4912068;29;20135;-81
2022/03/24 12:01:32;;;;;;;25.92;16.42;;;15.30;99.90;;;;;;4897405;29;20051;-80
2022/03/24 12:04:04;;;;;;;19.00;12.85;;;15.60;99.90;;;;;;4911688;29;20091;-81
2022/03/24 12:06:46;;;;;;;27.23;16.27;;;15.90;99.90;;;;;;4913079;29;20083;-81
2022/03/24 12:09:23;;;;;;;29.83;17.63;;;16.20;99.90;;;;;;4907765;29;20691;-81
2022/03/24 12:11:51;;;;;;;;;;;16.40;99.90;;;;;;4878062;29;20148;-81
2022/03/24 12:14:32;;;;;;;29.40;17.48;;;16.70;99.90;;;;;;4896770;29;19978;-81
2022/03/24 12:17:03;;;;;;;27.58;17.40;;;17.00;99.90;;;;;;4912544;29;20048;-82
2022/03/24 12:19:32;;;;;;;22.10;15.02;;;17.20;99.90;;;;;;4897021;29;20059;-82
2022/03/24 12:21:59;;;;;;;24.08;15.25;;;17.50;99.90;;;;;;4911927;29;20070;-83
2022/03/24 12:24:34;;;;;;;23.73;15.85;;;17.70;99.90;;;;;;4915181;29;20052;-82
2022/03/24 12:27:05;;;;;;;25.67;14.80;;;17.90;99.90;;;;;;4884139;29;20084;-82
2022/03/24 12:29:31;;;;;;;20.73;13.57;;;18.20;99.90;;;;;;4916403;29;20139;-82
2022/03/24 12:31:58;;;;;;;;;;;18.50;99.90;;;;;;4916085;29;20103;-82
2022/03/24 12:34:31;;;;;;;24.95;16.40;;;18.80;90.60;;;;;;4912846;29;20312;-82
2022/03/24 12:36:57;;;;;;;24.77;16.98;;;19.10;99.90;;;;;;4908745;29;20184;-83
2022/03/24 12:39:34;;;;;;;28.38;16.65;;;19.40;99.90;;;;;;4897283;29;20108;-83
2022/03/24 12:42:08;;;;;;;22.27;14.55;;;19.70;93.50;;;;;;4895409;29;20053;-83
2022/03/24 12:44:54;;;;;;;28.40;14.85;;;20.00;99.90;;;;;;4897191;29;20407;-82
2022/03/24 12:47:30;;;;;;;25.33;14.60;;;20.30;84.20;;;;;;4895364;29;20578;-83